Time;durP1;ratioP1;P1;durP2;ratioP2;P2;SDS_P1;SDS_P2;PMS_P1;PMS_P2;Temp;Humidity;BMP_temperature;BMP_pressure;BME280_temperature;BME280_humidity;BME280_pressure;Samples;Min_cycle;Max_cycle;Signal;HPM_P1;HPM_P2
2023/04/10 00:01:21;;;;;;;8.20;7.40;;;;;;;21.73;55.18;100019.00;104587;1263;73991;-64
2023/04/10 00:04:04;;;;;;;7.60;7.00;;;;;;;21.76;54.95;100016.48;104586;1263;69726;-63
2023/04/10 00:06:34;;;;;;;8.50;7.80;;;;;;;21.74;54.96;100018.58;104473;1251;72137;-64
2023/04/10 00:09:02;;;;;;;8.90;8.10;;;;;;;21.73;54.81;100022.02;104506;1255;61782;-63
2023/04/10 00:11:31;;;;;;;8.80;8.00;;;;;;;21.75;54.76;100023.85;104558;1265;60703;-64
2023/04/10 00:14:00;;;;;;;8.50;7.80;;;;;;;21.79;54.53;100022.81;104458;1258;73588;-64
2023/04/10 00:16:31;;;;;;;10.70;8.50;;;;;;;21.78;54.36;100023.20;104510;1264;69356;-64
2023/04/10 00:19:00;;;;;;;9.80;8.80;;;;;;;21.77;54.25;100026.40;104558;1261;73284;-64
2023/04/10 00:21:28;;;;;;;9.30;8.30;;;;;;;21.80;54.21;100025.79;104629;1261;62038;-64
2023/04/10 00:24:00;;;;;;;9.20;8.30;;;;;;;21.81;54.29;100022.80;104488;1263;59933;-63
2023/04/10 00:26:30;;;;;;;8.50;7.80;;;;;;;21.83;53.95;100020.54;104656;1251;73174;-63
2023/04/10 00:28:59;;;;;;;9.80;8.50;;;;;;;21.88;53.98;100017.45;104624;1270;68805;-63
2023/04/10 00:31:27;;;;;;;9.70;8.80;;;;;;;21.91;53.90;100018.23;104497;1256;72736;-67
2023/04/10 00:33:57;;;;;;;9.40;8.60;;;;;;;21.90;53.70;100024.73;104499;1251;62021;-63
2023/04/10 00:36:27;;;;;;;8.80;8.00;;;;;;;21.90;53.63;100018.47;104401;1251;60536;-63
2023/04/10 00:38:56;;;;;;;8.80;8.00;;;;;;;21.91;53.29;100016.45;104363;1269;74050;-63
2023/04/10 00:41:28;;;;;;;9.30;8.40;;;;;;;21.85;53.42;100017.66;104499;1267;69913;-64
2023/04/10 00:43:56;;;;;;;9.80;8.90;;;;;;;21.82;53.88;100012.74;104222;1258;72269;-63
2023/04/10 00:46:26;;;;;;;9.60;8.70;;;;;;;21.78;53.91;100013.40;104550;1264;61533;-63
2023/04/10 00:48:57;;;;;;;9.60;8.80;;;;;;;21.80;53.97;100011.64;104658;1256;60478;-63
2023/04/10 00:51:26;;;;;;;9.70;8.80;;;;;;;21.82;53.65;100012.92;104501;1263;73446;-62
2023/04/10 00:54:00;;;;;;;9.30;8.50;;;;;;;21.83;53.61;100012.11;104466;1251;69582;-66
2023/04/10 00:56:31;;;;;;;9.50;8.40;;;;;;;21.83;53.74;100008.25;104547;1256;71866;-65
2023/04/10 00:59:01;;;;;;;9.00;8.20;;;;;;;21.87;53.66;100006.98;104365;1251;63072;-66
2023/04/10 01:01:37;;;;;;;8.40;7.80;;;;;;;21.88;53.86;100005.81;104314;1266;60456;-67
2023/04/10 01:04:12;;;;;;;8.30;7.60;;;;;;;21.86;53.76;100009.52;104562;1257;73193;-67
2023/04/10 01:06:50;;;;;;;9.00;8.20;;;;;;;21.82;53.79;100008.27;104389;1255;69202;-68
2023/04/10 01:09:58;;;;;;;8.60;7.90;;;;;;;21.83;53.77;100009.62;104525;1274;72173;-68
2023/04/10 01:12:44;;;;;;;8.10;7.50;;;;;;;21.88;53.85;100013.64;104495;1254;60848;-68
2023/04/10 01:15:20;;;;;;;7.60;7.00;;;;;;;21.89;53.74;100010.05;104675;1251;60494;-68
2023/04/10 01:18:12;;;;;;;8.50;7.80;;;;;;;21.88;53.83;100010.84;104527;1251;72923;-68
2023/04/10 01:20:41;;;;;;;7.90;7.00;;;;;;;21.93;53.85;100009.34;104687;1254;70422;-68
2023/04/10 01:23:31;;;;;;;8.30;7.10;;;;;;;21.92;53.61;100010.82;104581;1267;72139;-67
2023/04/10 01:26:03;;;;;;;8.10;7.50;;;;;;;21.95;53.27;100007.22;104365;1269;62035;-68
2023/04/10 01:28:53;;;;;;;8.20;6.90;;;;;;;21.89;53.51;100008.79;104596;1267;59774;-62
2023/04/10 01:31:42;;;;;;;8.50;7.70;;;;;;;21.95;53.43;100008.41;104441;1260;72864;-66
2023/04/10 01:34:18;;;;;;;8.70;7.90;;;;;;;21.92;53.14;100008.48;104546;1264;69029;-60
2023/04/10 01:36:50;;;;;;;8.20;7.50;;;;;;;21.88;53.27;100008.33;104422;1257;72200;-61
2023/04/10 01:39:20;;;;;;;8.90;8.20;;;;;;;21.85;53.44;100004.84;104557;1267;60756;-61
2023/04/10 01:41:51;;;;;;;9.30;8.40;;;;;;;21.84;53.30;100005.42;104303;1267;61167;-61
2023/04/10 01:44:26;;;;;;;9.10;8.30;;;;;;;21.83;53.70;100007.30;104342;1259;74364;-62
2023/04/10 01:46:55;;;;;;;9.10;8.10;;;;;;;21.78;53.44;100005.91;104556;1256;69753;-66
2023/04/10 01:49:25;;;;;;;10.30;9.30;;;;;;;21.74;53.65;100007.00;104347;1251;73110;-66
2023/04/10 01:52:00;;;;;;;8.90;8.10;;;;;;;21.70;54.39;100007.83;104491;1261;61390;-66
2023/04/10 01:54:31;;;;;;;9.30;8.40;;;;;;;21.76;53.92;100006.31;104481;1257;60534;-66
2023/04/10 01:57:00;;;;;;;9.30;8.50;;;;;;;21.76;53.65;100011.63;104273;1251;73144;-67
2023/04/10 01:59:30;;;;;;;9.40;8.40;;;;;;;21.69;54.07;100009.50;104361;1251;69224;-66
2023/04/10 02:01:59;;;;;;;9.50;8.60;;;;;;;21.71;54.13;100011.54;104281;1259;72146;-67
2023/04/10 02:04:29;;;;;;;9.30;8.50;;;;;;;21.73;53.95;100008.46;104760;1251;61876;-67
2023/04/10 02:07:16;;;;;;;9.50;8.70;;;;;;;21.69;53.98;100005.10;104720;1267;59926;-67
2023/04/10 02:09:50;;;;;;;9.50;8.60;;;;;;;21.66;54.58;100008.40;104547;1251;73282;-67
2023/04/10 02:12:43;;;;;;;10.20;9.20;;;;;;;21.55;54.25;100008.05;104669;1266;68759;-67
2023/04/10 02:15:13;;;;;;;11.70;9.50;;;;;;;21.54;54.64;100010.77;104273;1256;71922;-67
2023/04/10 02:17:41;;;;;;;11.90;9.00;;;;;;;21.51;55.06;100008.36;104492;1254;62027;-67
2023/04/10 02:20:10;;;;;;;10.50;9.50;;;;;;;21.57;54.68;100010.71;104654;1251;60549;-66
2023/04/10 02:22:44;;;;;;;10.90;9.80;;;;;;;21.49;55.12;100009.76;104471;1254;73226;-66
2023/04/10 02:25:14;;;;;;;10.10;9.10;;;;;;;21.43;55.07;100007.77;104363;1258;69909;-68
2023/04/10 02:27:43;;;;;;;11.00;9.80;;;;;;;21.45;55.14;100010.63;104499;1250;72152;-66
2023/04/10 02:30:12;;;;;;;12.00;10.70;;;;;;;21.46;55.06;100010.55;104458;1254;62021;-68
2023/04/10 02:32:43;;;;;;;12.40;10.90;;;;;;;21.46;55.06;100012.10;104400;1258;60450;-69
2023/04/10 02:35:11;;;;;;;11.90;10.00;;;;;;;21.49;55.19;100015.42;104447;1271;74123;-67
2023/04/10 02:37:41;;;;;;;11.30;10.10;;;;;;;21.48;55.00;100013.25;104294;1260;376005;-65
2023/04/10 02:41:00;;;;;;;11.30;10.30;;;;;;;20.47;69.03;100015.66;101360;1290;600908;-65
2023/04/10 02:43:28;;;;;;;11.90;10.60;;;;;;;21.78;56.96;100014.30;103867;1282;61268;-67
2023/04/10 02:45:58;;;;;;;13.00;11.70;;;;;;;21.76;56.23;100013.92;103830;1280;59508;-65
2023/04/10 02:48:29;;;;;;;12.40;11.30;;;;;;;21.73;56.21;100013.85;104266;1264;71211;-65
2023/04/10 02:51:00;;;;;;;13.20;12.00;;;;;;;21.74;56.15;100017.36;104344;1259;69269;-66
2023/04/10 02:53:29;;;;;;;12.60;11.40;;;;;;;21.67;56.23;100016.30;104097;1258;284758;-65
2023/04/10 02:56:01;;;;;;;13.20;11.90;;;;;;;21.67;56.21;100017.05;104498;1250;61243;-66
2023/04/10 02:58:30;;;;;;;12.20;11.00;;;;;;;21.64;56.28;100017.77;104332;1255;60323;-65
2023/04/10 03:00:59;;;;;;;14.40;11.60;;;;;;;21.64;56.42;100015.09;104395;1272;72435;-65
2023/04/10 03:03:42;;;;;;;13.00;11.60;;;;;;;21.61;56.92;100013.45;104533;1256;69380;-66
2023/04/10 03:06:12;;;;;;;12.70;11.30;;;;;;;21.59;56.36;100014.88;104487;1255;72781;-65
2023/04/10 03:08:42;;;;;;;14.10;12.70;;;;;;;21.61;56.41;100017.20;104419;1251;61974;-65
2023/04/10 03:11:11;;;;;;;14.30;12.60;;;;;;;21.63;56.15;100019.84;104457;1254;60346;-66
2023/04/10 03:13:42;;;;;;;15.10;13.40;;;;;;;21.63;56.34;100016.11;104774;1254;72574;-65
2023/04/10 03:16:11;;;;;;;12.90;11.60;;;;;;;21.60;56.42;100016.02;104495;1264;68661;-66
2023/04/10 03:18:40;;;;;;;18.50;13.90;;;;;;;21.57;56.38;100017.54;104328;1251;72000;-66
2023/04/10 03:21:09;;;;;;;15.20;13.70;;;;;;;21.57;56.03;100021.59;104421;1252;60939;-66
2023/04/10 03:23:38;;;;;;;15.20;13.70;;;;;;;21.51;56.49;100023.13;104385;1261;59774;-66
2023/04/10 03:26:07;;;;;;;14.60;13.20;;;;;;;21.52;56.49;100020.05;104377;1256;72275;-65
2023/04/10 03:28:40;;;;;;;13.80;12.50;;;;;;;21.55;56.09;100021.38;104488;1264;69810;-67
2023/04/10 03:31:11;;;;;;;14.20;12.60;;;;;;;21.53;56.24;100022.77;104570;1263;72898;-67
2023/04/10 03:33:41;;;;;;;14.90;13.40;;;;;;;21.55;56.32;100022.67;104428;1254;61016;-67
2023/04/10 03:36:10;;;;;;;12.50;11.40;;;;;;;21.58;56.23;100019.20;104340;1251;60033;-67
2023/04/10 03:38:39;;;;;;;13.70;12.00;;;;;;;21.62;56.18;100024.89;104501;1252;72796;-67
2023/04/10 03:41:11;;;;;;;13.60;12.20;;;;;;;21.62;56.38;100025.98;104447;1251;68841;-67
2023/04/10 03:43:41;;;;;;;15.10;12.40;;;;;;;21.53;56.88;100027.27;104480;1255;72761;-67
2023/04/10 03:46:09;;;;;;;13.20;12.00;;;;;;;21.48;57.04;100028.55;104282;1255;61688;-67
2023/04/10 03:48:42;;;;;;;12.90;11.60;;;;;;;21.47;56.78;100029.55;104338;1251;59750;-66
2023/04/10 03:51:10;;;;;;;12.50;11.30;;;;;;;21.51;56.94;100030.98;104445;1266;72634;-67
2023/04/10 03:53:40;;;;;;;13.00;11.70;;;;;;;21.50;56.56;100028.58;104377;1272;69323;-67
2023/04/10 03:56:13;;;;;;;13.30;11.90;;;;;;;21.53;56.29;100031.94;104428;1266;72180;-68
2023/04/10 03:58:44;;;;;;;12.30;11.10;;;;;;;21.56;56.26;100034.37;104318;1274;60963;-67
2023/04/10 04:01:12;;;;;;;14.90;12.20;;;;;;;21.59;56.16;100036.59;104381;1253;60035;-66
2023/04/10 04:03:54;;;;;;;12.30;11.20;;;;;;;21.61;56.09;100039.30;104336;1260;72319;-66
2023/04/10 04:06:43;;;;;;;13.00;11.60;;;;;;;21.60;55.97;100042.02;104751;1256;69778;-66
2023/04/10 04:09:26;;;;;;;12.60;11.40;;;;;;;21.61;55.92;100043.39;104415;1272;71604;-65
2023/04/10 04:12:20;;;;;;;13.20;11.90;;;;;;;21.58;56.06;100044.52;104462;1256;61413;-66
2023/04/10 04:14:57;;;;;;;14.00;12.50;;;;;;;21.56;55.83;100044.19;104413;1254;59695;-68
2023/04/10 04:17:59;;;;;;;14.20;12.60;;;;;;;21.43;56.36;100048.20;104822;1257;72694;-62
2023/04/10 04:20:40;;;;;;;14.10;12.60;;;;;;;21.50;56.32;100046.92;104818;1256;69315;-66
2023/04/10 04:23:41;;;;;;;14.70;13.00;;;;;;;21.57;56.11;100048.68;104465;1255;72623;-65
2023/04/10 04:26:23;;;;;;;14.30;12.80;;;;;;;21.46;56.60;100050.34;104361;1266;60687;-65
2023/04/10 04:29:14;;;;;;;15.00;13.40;;;;;;;21.40;56.75;100053.08;104458;1250;60319;-64
2023/04/10 04:32:01;;;;;;;14.50;13.00;;;;;;;21.36;56.76;100051.23;104309;1266;73495;-64
2023/04/10 04:34:39;;;;;;;15.80;14.20;;;;;;;21.40;56.59;100057.23;104388;1255;68603;-65
2023/04/10 04:37:28;;;;;;;18.30;14.40;;;;;;;21.39;56.64;100055.50;104319;1256;73307;-65
2023/04/10 04:40:18;;;;;;;17.30;15.00;;;;;;;21.39;56.30;100059.27;104282;1268;61377;-67
2023/04/10 04:43:05;;;;;;;16.10;14.20;;;;;;;21.35;56.92;100059.73;104668;1251;60076;-68
2023/04/10 04:46:04;;;;;;;15.00;12.80;;;;;;;21.44;57.12;100061.35;104037;1254;72003;-64
2023/04/10 04:49:02;;;;;;;15.50;13.90;;;;;;;21.56;56.56;100062.52;104106;1253;69469;-63
2023/04/10 04:51:44;;;;;;;17.30;14.40;;;;;;;21.59;56.40;100064.24;104249;1269;71862;-60
2023/04/10 04:54:49;;;;;;;15.40;13.10;;;;;;;21.57;56.48;100066.88;103926;1265;61335;-62
2023/04/10 04:57:36;;;;;;;19.10;14.00;;;;;;;21.57;56.28;100067.23;104561;1256;60602;-60
2023/04/10 05:00:24;;;;;;;;;;;;;;;21.57;56.27;100067.78;104290;1259;72348;-60
2023/04/10 05:03:05;;;;;;;14.20;12.50;;;;;;;21.59;56.07;100067.67;104289;1257;69304;-59
2023/04/10 05:05:43;;;;;;;15.30;13.20;;;;;;;21.47;56.73;100075.77;104335;1256;72383;-61
2023/04/10 05:08:34;;;;;;;16.30;14.10;;;;;;;21.43;56.80;100078.89;104373;1251;61349;-60
2023/04/10 05:11:12;;;;;;;15.50;13.40;;;;;;;21.46;56.43;100085.47;104382;1256;60458;-58
2023/04/10 05:13:53;;;;;;;17.00;14.10;;;;;;;21.50;56.20;100088.30;104348;1258;73331;-58
2023/04/10 05:16:34;;;;;;;17.60;13.20;;;;;;;21.48;56.23;100089.39;104516;1259;70116;-57
2023/04/10 05:19:17;;;;;;;15.90;12.80;;;;;;;21.50;56.70;100088.31;104274;1272;72503;-58
2023/04/10 05:21:49;;;;;;;17.70;13.40;;;;;;;21.51;56.57;100086.13;104366;1255;61284;-58
2023/04/10 05:24:37;;;;;;;13.80;12.20;;;;;;;21.53;56.98;100087.70;104247;1257;59841;-58
2023/04/10 05:27:16;;;;;;;13.80;11.40;;;;;;;21.58;56.85;100083.41;104381;1257;72330;-59
2023/04/10 05:30:16;;;;;;;13.70;11.30;;;;;;;21.61;56.90;100084.09;104435;1259;68712;-58
2023/04/10 05:33:04;;;;;;;12.80;10.80;;;;;;;21.58;57.08;100084.85;104265;1265;72503;-59
2023/04/10 05:35:35;;;;;;;11.40;10.00;;;;;;;21.55;57.19;100087.41;104414;1254;61847;-58
2023/04/10 05:38:14;;;;;;;13.20;10.70;;;;;;;21.61;56.91;100085.69;104467;1272;60273;-59
2023/04/10 05:40:50;;;;;;;11.90;9.80;;;;;;;21.59;56.97;100087.98;104399;1256;72861;-59
2023/04/10 05:43:38;;;;;;;11.40;10.10;;;;;;;21.57;57.18;100091.91;104445;1255;69609;-62
2023/04/10 05:46:33;;;;;;;13.90;12.20;;;;;;;21.65;57.19;100096.19;104287;1253;72730;-59
2023/04/10 05:49:25;;;;;;;10.70;9.20;;;;;;;21.58;57.61;100095.54;104181;1255;61214;-57
2023/04/10 05:52:22;;;;;;;11.00;9.80;;;;;;;21.61;57.68;100094.82;104574;1257;61048;-60
2023/04/10 05:54:51;;;;;;;12.00;10.60;;;;;;;21.62;57.34;100099.52;104933;1255;72547;-61
2023/04/10 05:57:50;;;;;;;11.30;9.10;;;;;;;21.62;57.35;100102.15;104667;1261;70477;-61
2023/04/10 06:00:31;;;;;;;13.50;9.70;;;;;;;21.63;57.28;100104.08;104267;1252;72230;-60
2023/04/10 06:03:23;;;;;;;14.70;10.80;;;;;;;21.60;57.28;100105.71;104770;1251;62147;-61
2023/04/10 06:05:56;;;;;;;12.80;10.00;;;;;;;21.62;57.33;100104.69;104577;1264;60210;-60
2023/04/10 06:08:26;;;;;;;14.50;11.40;;;;;;;21.65;57.25;100104.98;104461;1251;73235;-61
2023/04/10 06:10:56;;;;;;;16.50;12.10;;;;;;;21.65;57.21;100107.79;104346;1257;68653;-66
2023/04/10 06:13:26;;;;;;;14.50;10.70;;;;;;;21.68;56.88;100110.63;104207;1266;72115;-61
2023/04/10 06:15:59;;;;;;;15.80;11.20;;;;;;;21.66;56.82;100112.17;104412;1254;61225;-61
2023/04/10 06:18:30;;;;;;;19.40;12.50;;;;;;;21.63;57.03;100109.05;104355;1251;59665;-65
2023/04/10 06:21:00;;;;;;;20.70;12.20;;;;;;;21.65;56.83;100115.67;104366;1254;72291;-61
2023/04/10 06:23:43;;;;;;;18.00;11.40;;;;;;;21.67;56.75;100119.63;104494;1257;69240;-61
2023/04/10 06:26:12;;;;;;;14.90;11.80;;;;;;;21.68;56.73;100119.20;104444;1264;72571;-61
2023/04/10 06:28:41;;;;;;;16.20;12.10;;;;;;;21.69;56.65;100115.21;104891;1250;61412;-61
2023/04/10 06:31:13;;;;;;;16.50;12.50;;;;;;;21.74;56.52;100117.90;104482;1251;59721;-61
2023/04/10 06:33:42;;;;;;;14.80;12.10;;;;;;;21.80;56.26;100116.27;104402;1270;73223;-62
2023/04/10 06:36:10;;;;;;;20.90;13.40;;;;;;;21.79;56.25;100113.66;104535;1256;70691;-62
2023/04/10 06:38:45;;;;;;;14.70;12.10;;;;;;;21.77;56.36;100115.05;104772;1251;72411;-61
2023/04/10 06:41:14;;;;;;;15.40;12.60;;;;;;;21.81;56.26;100111.35;104283;1259;61178;-61
2023/04/10 06:43:49;;;;;;;16.90;12.90;;;;;;;21.84;56.16;100113.43;104370;1266;60332;-61
2023/04/10 06:46:18;;;;;;;14.10;12.10;;;;;;;21.88;56.10;100114.80;104564;1256;72881;-61
2023/04/10 06:48:46;;;;;;;15.80;12.10;;;;;;;21.86;56.22;100117.52;104315;1263;70291;-61
2023/04/10 06:51:15;;;;;;;15.30;11.80;;;;;;;21.86;56.33;100121.60;104567;1256;72089;-61
2023/04/10 06:53:44;;;;;;;16.30;12.40;;;;;;;21.87;56.32;100120.11;104539;1267;61631;-61
2023/04/10 06:56:14;;;;;;;16.50;11.60;;;;;;;21.92;56.31;100122.02;104480;1263;60721;-62
2023/04/10 06:58:47;;;;;;;17.40;11.20;;;;;;;21.94;56.07;100123.13;104810;1254;74946;-62
2023/04/10 07:01:16;;;;;;;16.50;12.70;;;;;;;21.94;55.87;100124.36;104685;1254;69455;-61
2023/04/10 07:03:45;;;;;;;14.70;11.60;;;;;;;21.92;55.98;100123.45;104418;1253;72191;-61
2023/04/10 07:06:20;;;;;;;17.80;12.30;;;;;;;21.89;55.85;100126.89;104626;1256;61160;-61
2023/04/10 07:08:54;;;;;;;14.40;10.70;;;;;;;21.84;56.10;100126.79;104379;1258;60541;-61
2023/04/10 07:11:24;;;;;;;17.00;11.70;;;;;;;21.81;56.18;100130.27;104402;1269;73220;-62
2023/04/10 07:13:57;;;;;;;16.20;12.80;;;;;;;21.82;56.54;100127.64;104280;1263;70151;-64
2023/04/10 07:16:28;;;;;;;16.60;12.10;;;;;;;21.88;56.22;100128.27;104772;1254;73650;-62
2023/04/10 07:18:57;;;;;;;16.30;12.70;;;;;;;21.87;56.04;100129.38;104558;1263;61790;-62
2023/04/10 07:21:26;;;;;;;16.30;12.00;;;;;;;21.82;55.88;100131.56;104766;1251;59935;-63
2023/04/10 07:23:56;;;;;;;18.40;11.80;;;;;;;21.78;56.12;100133.69;104675;1266;74770;-61
2023/04/10 07:26:25;;;;;;;19.20;12.00;;;;;;;21.69;56.42;100138.75;104503;1256;69726;-62
2023/04/10 07:28:53;;;;;;;13.50;11.10;;;;;;;21.65;56.58;100140.80;104319;1256;71797;-61
2023/04/10 07:31:23;;;;;;;14.60;10.40;;;;;;;21.66;56.75;100141.66;104378;1257;61989;-61
2023/04/10 07:33:52;;;;;;;14.70;10.80;;;;;;;21.70;56.73;100144.54;105031;1256;60546;-61
2023/04/10 07:36:20;;;;;;;15.30;10.60;;;;;;;21.81;56.34;100145.52;104431;1264;73299;-61
2023/04/10 07:38:48;;;;;;;11.90;10.10;;;;;;;21.83;56.17;100143.31;104419;1254;69817;-61
2023/04/10 07:41:18;;;;;;;13.00;10.10;;;;;;;21.77;56.29;100151.23;104770;1251;72337;-62
2023/04/10 07:43:50;;;;;;;13.90;10.20;;;;;;;21.74;56.31;100151.17;104580;1263;62077;-61
2023/04/10 07:46:20;;;;;;;13.30;10.00;;;;;;;21.71;56.68;100149.44;104661;1262;60537;-62
2023/04/10 07:48:49;;;;;;;15.00;10.10;;;;;;;21.69;56.68;100154.19;104712;1256;73525;-62
2023/04/10 07:51:21;;;;;;;9.80;8.20;;;;;;;21.69;56.92;100155.69;108481;1250;70095;-62
2023/04/10 07:53:49;;;;;;;9.90;8.60;;;;;;;21.71;57.00;100155.11;108230;1251;71879;-62
2023/04/10 07:56:18;;;;;;;11.30;8.10;;;;;;;21.71;57.08;100154.59;108534;1250;62525;-60
2023/04/10 07:58:47;;;;;;;11.50;8.30;;;;;;;21.73;57.12;100156.05;106481;1250;60561;-65
2023/04/10 08:01:16;;;;;;;8.50;7.70;;;;;;;21.78;57.06;100156.17;108523;1253;73918;-61
2023/04/10 08:03:46;;;;;;;10.00;7.70;;;;;;;21.81;57.00;100157.19;108234;1253;70344;-59
2023/04/10 08:06:15;;;;;;;9.30;7.70;;;;;;;21.84;57.33;100159.08;104440;1256;71872;-58
2023/04/10 08:08:44;;;;;;;8.10;7.20;;;;;;;21.83;57.29;100156.14;104855;1256;60997;-60
2023/04/10 08:11:23;;;;;;;9.50;7.80;;;;;;;21.86;57.45;100155.00;104516;1263;60824;-59
2023/04/10 08:14:04;;;;;;;9.10;8.20;;;;;;;21.87;57.81;100156.01;104459;1257;73386;-61
2023/04/10 08:16:34;;;;;;;10.10;8.20;;;;;;;21.89;57.94;100156.75;108468;1251;69478;-61
2023/04/10 08:19:03;;;;;;;9.50;8.50;;;;;;;21.90;57.94;100158.98;108497;1253;73425;-61
2023/04/10 08:21:32;;;;;;;13.00;8.40;;;;;;;21.97;57.67;100164.23;108476;1251;60962;-60
2023/04/10 08:24:02;;;;;;;9.10;8.20;;;;;;;22.01;57.90;100159.50;106148;1256;60562;-60
2023/04/10 08:26:31;;;;;;;9.50;8.20;;;;;;;22.02;58.29;100162.27;108451;1254;75262;-59
2023/04/10 08:29:00;;;;;;;10.20;8.40;;;;;;;22.04;58.50;100158.27;108493;1254;68972;-61
2023/04/10 08:31:28;;;;;;;9.50;8.20;;;;;;;22.10;59.64;100153.55;104751;1255;71836;-59
2023/04/10 08:33:57;;;;;;;10.70;8.60;;;;;;;22.21;59.57;100154.61;104470;1259;61322;-61
2023/04/10 08:36:27;;;;;;;10.90;8.60;;;;;;;22.29;59.33;100156.98;104294;1255;61454;-61
2023/04/10 08:38:56;;;;;;;10.30;8.50;;;;;;;22.36;58.86;100154.64;104433;1257;73862;-61
2023/04/10 08:41:24;;;;;;;9.70;8.20;;;;;;;22.40;58.42;100155.17;104510;1260;69519;-61
2023/04/10 08:43:56;;;;;;;9.80;8.10;;;;;;;22.43;58.11;100156.54;104357;1257;72240;-62
2023/04/10 08:46:26;;;;;;;10.30;8.70;;;;;;;22.49;58.01;100154.26;104500;1251;62222;-62
2023/04/10 08:49:02;;;;;;;8.60;7.70;;;;;;;22.58;56.77;100157.11;104278;1257;60626;-66
2023/04/10 08:52:07;;;;;;;10.20;7.90;;;;;;;22.66;56.33;100159.79;104520;1264;73347;-60
2023/04/10 08:54:37;;;;;;;9.50;8.30;;;;;;;22.65;56.03;100155.55;103946;1262;69180;-60
2023/04/10 08:57:06;;;;;;;12.70;8.20;;;;;;;22.61;55.81;100156.31;104297;1258;72869;-60
2023/04/10 08:59:37;;;;;;;9.50;8.30;;;;;;;22.55;55.79;100156.59;104332;1251;61459;-61
2023/04/10 09:02:10;;;;;;;9.30;7.60;;;;;;;22.54;55.54;100157.80;104344;1274;59853;-60
2023/04/10 09:04:40;;;;;;;11.40;8.20;;;;;;;22.50;55.90;100157.58;104423;1256;73714;-59
2023/04/10 09:07:09;;;;;;;9.20;7.70;;;;;;;22.49;56.51;100161.53;104470;1269;69634;-59
2023/04/10 09:09:40;;;;;;;8.70;7.80;;;;;;;22.51;57.51;100160.11;104332;1254;72880;-59
2023/04/10 09:12:11;;;;;;;8.50;7.70;;;;;;;22.53;57.94;100163.00;104608;1251;62316;-59
2023/04/10 09:14:40;;;;;;;8.60;7.70;;;;;;;22.57;58.13;100163.04;104364;1254;60533;-59
2023/04/10 09:17:17;;;;;;;8.20;7.40;;;;;;;22.59;59.45;100163.80;104343;1254;73865;-60
2023/04/10 09:19:53;;;;;;;8.60;7.70;;;;;;;22.70;59.62;100159.05;104323;1257;70237;-62
2023/04/10 09:22:32;;;;;;;8.40;7.40;;;;;;;22.79;58.91;100158.10;104540;1255;72857;-62
2023/04/10 09:25:27;;;;;;;7.10;6.30;;;;;;;22.84;58.83;100159.09;104518;1251;62011;-62
2023/04/10 09:28:03;;;;;;;7.50;6.50;;;;;;;22.88;59.32;100158.96;104455;1258;60488;-62
2023/04/10 09:30:41;;;;;;;7.30;6.60;;;;;;;22.91;59.82;100157.62;104644;1258;72981;-62
2023/04/10 09:33:26;;;;;;;7.30;6.60;;;;;;;22.98;60.11;100153.66;104322;1267;70450;-62
2023/04/10 09:36:02;;;;;;;7.80;7.00;;;;;;;23.02;60.14;100148.80;104282;1256;73155;-62
2023/04/10 09:38:31;;;;;;;5.90;5.20;;;;;;;22.96;58.60;100153.08;104478;1253;61988;-62
2023/04/10 09:41:07;;;;;;;6.40;5.90;;;;;;;22.95;59.26;100152.31;104959;1256;60505;-62
2023/04/10 09:43:37;;;;;;;5.90;5.00;;;;;;;23.01;59.97;100149.68;105208;1256;73100;-62
2023/04/10 09:46:06;;;;;;;5.20;4.70;;;;;;;23.09;59.70;100146.98;104382;1256;69191;-62
2023/04/10 09:48:34;;;;;;;5.40;4.60;;;;;;;23.19;59.57;100144.73;104742;1256;72428;-63
2023/04/10 09:51:04;;;;;;;4.30;3.90;;;;;;;23.27;59.09;100143.11;104577;1264;61065;-62
2023/04/10 09:53:47;;;;;;;4.40;4.10;;;;;;;23.35;58.72;100139.92;104777;1256;60559;-62
2023/04/10 09:56:15;;;;;;;3.90;3.70;;;;;;;23.48;58.59;100139.77;104811;1257;73203;-62
2023/04/10 09:58:44;;;;;;;4.10;3.80;;;;;;;23.53;58.25;100137.95;104544;1255;68501;-62
2023/04/10 10:01:12;;;;;;;4.00;3.70;;;;;;;23.51;57.92;100136.64;104332;1264;72023;-62
2023/04/10 10:03:41;;;;;;;4.00;3.70;;;;;;;23.53;58.11;100136.36;104377;1261;61399;-62
2023/04/10 10:06:10;;;;;;;5.20;4.00;;;;;;;23.57;57.26;100137.98;105970;1254;60448;-61
2023/04/10 10:08:40;;;;;;;3.60;3.30;;;;;;;23.63;57.41;100141.31;106075;1251;75397;-61
2023/04/10 10:11:11;;;;;;;3.60;3.30;;;;;;;23.67;56.99;100138.67;104343;1254;69736;-65
2023/04/10 10:13:47;;;;;;;3.90;3.60;;;;;;;23.72;55.54;100138.00;104399;1253;71820;-65
2023/04/10 10:16:27;;;;;;;4.10;3.80;;;;;;;23.81;54.30;100134.36;104334;1272;61333;-66
2023/04/10 10:19:04;;;;;;;3.40;3.20;;;;;;;23.86;53.04;100134.84;104863;1266;60271;-66
2023/04/10 10:21:33;;;;;;;4.20;3.30;;;;;;;23.91;52.94;100137.80;104706;1256;74274;-63
2023/04/10 10:24:07;;;;;;;3.60;3.00;;;;;;;23.94;53.09;100133.73;104339;1273;70118;-64
2023/04/10 10:26:38;;;;;;;3.30;3.10;;;;;;;24.00;52.25;100135.38;104319;1254;71875;-63
2023/04/10 10:29:09;;;;;;;3.20;2.90;;;;;;;24.08;52.43;100132.61;104267;1256;60678;-64
2023/04/10 10:31:41;;;;;;;2.70;2.50;;;;;;;24.25;51.27;100133.41;104353;1254;60423;-65
2023/04/10 10:34:10;;;;;;;3.60;3.10;;;;;;;24.36;52.36;100133.83;104511;1254;73014;-63
2023/04/10 10:36:38;;;;;;;3.50;3.20;;;;;;;24.42;51.83;100132.32;104193;1267;68725;-65
2023/04/10 10:39:13;;;;;;;4.60;3.60;;;;;;;24.49;51.72;100133.14;104279;1267;72360;-62
2023/04/10 10:41:45;;;;;;;4.20;3.30;;;;;;;24.55;51.30;100132.58;104291;1252;60913;-65
2023/04/10 10:44:20;;;;;;;3.40;3.20;;;;;;;24.60;51.31;100132.45;104511;1257;60556;-63
2023/04/10 10:46:50;;;;;;;3.30;3.10;;;;;;;24.70;50.67;100131.20;104287;1256;73283;-62
2023/04/10 10:49:19;;;;;;;3.90;3.60;;;;;;;24.76;50.25;100127.95;104349;1270;68772;-64
2023/04/10 10:51:49;;;;;;;4.00;3.70;;;;;;;24.80;50.39;100127.97;104504;1257;72110;-64
2023/04/10 10:54:33;;;;;;;4.00;3.70;;;;;;;24.83;50.41;100128.33;104934;1254;61481;-63
2023/04/10 10:57:08;;;;;;;4.00;3.70;;;;;;;24.91;49.99;100126.36;104706;1257;61064;-64
2023/04/10 10:59:57;;;;;;;4.00;3.70;;;;;;;24.98;51.07;100125.64;104913;1251;74363;-65
2023/04/10 11:02:30;;;;;;;4.20;3.80;;;;;;;25.08;49.44;100122.77;104778;1257;70356;-64
2023/04/10 11:04:59;;;;;;;3.90;3.60;;;;;;;25.15;49.91;100122.30;104623;1256;73590;-64
2023/04/10 11:08:00;;;;;;;3.90;3.60;;;;;;;25.18;49.64;100121.79;105022;1251;62261;-64
2023/04/10 11:11:04;;;;;;;3.40;3.20;;;;;;;25.31;48.83;100115.77;104334;1253;60499;-64
2023/04/10 11:13:36;;;;;;;3.80;3.50;;;;;;;25.27;47.96;100112.90;104527;1261;73723;-64
2023/04/10 11:16:11;;;;;;;3.10;2.90;;;;;;;25.22;48.55;100110.27;104424;1255;69988;-63
2023/04/10 11:18:47;;;;;;;3.20;2.90;;;;;;;25.28;48.07;100110.30;104974;1254;72434;-64
2023/04/10 11:21:30;;;;;;;2.50;2.40;;;;;;;25.31;46.56;100107.35;104642;1257;60891;-64
2023/04/10 11:24:06;;;;;;;3.00;2.70;;;;;;;25.36;46.61;100106.62;104553;1254;59548;-64
2023/04/10 11:29:18;;;;;;;2.30;2.10;;;;;;;25.43;46.67;100112.63;104423;1251;70050;-65
2023/04/10 11:31:55;;;;;;;3.90;2.00;;;;;;;25.58;47.37;100108.83;104220;1271;73076;-69
2023/04/10 11:34:26;;;;;;;2.50;2.20;;;;;;;25.67;46.29;100110.37;104501;1257;62562;-65
2023/04/10 11:36:55;;;;;;;2.00;1.90;;;;;;;25.75;46.40;100109.58;104453;1260;60041;-66
2023/04/10 11:39:25;;;;;;;2.00;1.90;;;;;;;25.75;43.95;100107.61;104751;1252;73404;-68
2023/04/10 11:41:55;;;;;;;1.70;1.60;;;;;;;25.69;44.31;100102.18;104456;1254;68491;-65
2023/04/10 11:44:31;;;;;;;2.10;2.00;;;;;;;25.68;44.29;100103.15;104483;1255;72273;-69
2023/04/10 11:47:00;;;;;;;1.80;1.60;;;;;;;25.71;44.10;100100.88;104527;1264;62258;-72